createdAt,value
2022-12-19T00:00:46.571Z,12.77
2022-12-19T00:03:15.974Z,14.13
2022-12-19T00:05:45.194Z,12.80
2022-12-19T00:08:18.031Z,12.30
2022-12-19T00:10:57.031Z,13.37
2022-12-19T00:13:26.612Z,13.93
2022-12-19T00:15:55.718Z,12.93
2022-12-19T00:18:24.780Z,13.93
2022-12-19T00:20:58.696Z,13.03
2022-12-19T00:23:28.812Z,12.57
2022-12-19T00:26:08.948Z,13.60
2022-12-19T00:28:37.970Z,13.57
2022-12-19T00:31:07.806Z,12.57
2022-12-19T00:33:37.463Z,12.90
2022-12-19T00:36:14.049Z,13.33
2022-12-19T00:38:46.024Z,13.87
2022-12-19T00:41:18.684Z,12.63
2022-12-19T00:43:48.343Z,12.67
2022-12-19T00:46:17.731Z,12.73
2022-12-19T00:48:46.763Z,12.23
2022-12-19T00:51:17.797Z,12.67
2022-12-19T00:53:48.381Z,12.30
2022-12-19T00:56:20.587Z,12.47
2022-12-19T00:58:50.121Z,11.70
2022-12-19T01:01:22.126Z,12.63
2022-12-19T01:04:26.799Z,11.57
2022-12-19T01:06:40.562Z,12.70
2022-12-19T01:09:10.233Z,12.47
2022-12-19T01:11:58.085Z,11.97
2022-12-19T01:14:27.087Z,11.70
2022-12-19T01:16:56.216Z,12.70
2022-12-19T01:19:25.649Z,11.60
2022-12-19T01:21:55.597Z,12.07
2022-12-19T01:24:24.578Z,12.57
2022-12-19T01:26:55.008Z,12.77
2022-12-19T01:29:24.001Z,13.37
2022-12-19T01:31:53.024Z,13.83
2022-12-19T01:34:22.087Z,12.33
2022-12-19T01:36:51.053Z,12.77
2022-12-19T01:39:20.051Z,14.13
2022-12-19T01:41:50.967Z,13.13
2022-12-19T01:44:21.462Z,13.63
2022-12-19T01:46:54.931Z,14.17
2022-12-19T01:49:31.364Z,13.07
2022-12-19T01:52:04.185Z,13.97
2022-12-19T01:54:38.878Z,14.50
2022-12-19T01:57:12.682Z,14.93
2022-12-19T01:59:46.487Z,14.83
2022-12-19T02:02:20.456Z,14.67
2022-12-19T02:04:50.040Z,15.10
2022-12-19T02:07:21.582Z,14.63
2022-12-19T02:09:56.783Z,15.10
2022-12-19T02:12:37.984Z,15.63
2022-12-19T02:15:11.294Z,16.23
2022-12-19T02:17:52.741Z,14.70
2022-12-19T02:20:56.730Z,14.97
2022-12-19T02:24:10.581Z,14.97
2022-12-19T02:27:12.860Z,15.90
2022-12-19T02:30:11.605Z,15.07
2022-12-19T02:32:56.377Z,15.93
2022-12-19T02:35:33.008Z,13.87
2022-12-19T02:38:12.759Z,15.53
2022-12-19T02:40:46.833Z,14.33
2022-12-19T02:43:24.168Z,15.33
2022-12-19T02:45:55.298Z,15.23
2022-12-19T02:48:26.224Z,14.83
2022-12-19T02:50:55.236Z,15.70
2022-12-19T02:53:24.422Z,15.33
2022-12-19T02:56:17.812Z,14.20
2022-12-19T02:59:00.936Z,16.23
2022-12-19T03:01:43.069Z,14.47
2022-12-19T03:04:22.325Z,15.83
2022-12-19T03:06:56.334Z,15.03
2022-12-19T03:09:33.866Z,15.53
2022-12-19T03:12:10.711Z,15.30
2022-12-19T03:14:44.604Z,15.07
2022-12-19T03:17:13.704Z,15.80
2022-12-19T03:19:44.319Z,15.30
2022-12-19T03:22:13.496Z,15.33
2022-12-19T03:24:42.994Z,15.70
2022-12-19T03:27:19.586Z,15.33
2022-12-19T03:29:54.931Z,15.47
2022-12-19T03:32:25.830Z,16.60
2022-12-19T03:35:01.595Z,15.77
2022-12-19T03:37:35.345Z,15.50
2022-12-19T03:40:07.616Z,16.67
2022-12-19T03:42:56.779Z,15.73
2022-12-19T03:45:33.666Z,16.33
2022-12-19T03:48:08.272Z,16.80
2022-12-19T03:50:48.130Z,14.50
2022-12-19T03:53:30.316Z,15.10
2022-12-19T03:56:07.157Z,16.53
2022-12-19T03:58:39.806Z,15.07
2022-12-19T04:01:09.800Z,16.13
2022-12-19T04:03:39.116Z,16.20
2022-12-19T04:06:10.279Z,15.60
2022-12-19T04:08:39.877Z,14.40
2022-12-19T04:11:12.542Z,15.73
2022-12-19T04:13:46.254Z,17.07
2022-12-19T04:16:21.510Z,15.50
2022-12-19T04:18:57.300Z,15.53
2022-12-19T04:21:33.596Z,16.30
2022-12-19T04:24:07.573Z,16.77
2022-12-19T04:26:37.996Z,15.00
2022-12-19T04:29:09.366Z,14.60
2022-12-19T04:31:38.882Z,13.77
2022-12-19T04:34:08.020Z,15.33
2022-12-19T04:36:38.457Z,15.77
2022-12-19T04:39:07.535Z,14.40
2022-12-19T04:41:36.514Z,14.50
2022-12-19T04:44:05.769Z,14.63
2022-12-19T04:46:34.787Z,15.33
2022-12-19T04:49:03.834Z,14.00
2022-12-19T04:51:32.880Z,15.67
2022-12-19T04:54:03.300Z,14.60
2022-12-19T04:56:32.309Z,15.97
2022-12-19T04:59:01.661Z,14.60
2022-12-19T05:01:30.771Z,16.60
2022-12-19T05:04:04.191Z,14.93
2022-12-19T05:06:33.990Z,14.40
2022-12-19T05:09:04.579Z,15.37
2022-12-19T05:11:33.574Z,15.30
2022-12-19T05:14:02.715Z,14.43
2022-12-19T05:16:31.749Z,14.80
2022-12-19T05:19:01.714Z,16.10
2022-12-19T05:21:30.791Z,15.27
2022-12-19T05:24:00.065Z,15.00
2022-12-19T05:26:30.708Z,15.37
2022-12-19T05:28:59.832Z,15.80
2022-12-19T05:31:28.889Z,15.53
2022-12-19T05:33:57.885Z,15.53
2022-12-19T05:36:32.283Z,15.73
2022-12-19T05:39:01.728Z,15.77
2022-12-19T05:41:32.259Z,16.50
2022-12-19T05:44:01.297Z,15.93
2022-12-19T05:46:30.380Z,16.10
2022-12-19T05:48:59.572Z,15.90
2022-12-19T05:51:29.264Z,18.43
2022-12-19T05:53:58.386Z,15.33
2022-12-19T05:56:27.429Z,16.10
2022-12-19T05:58:58.091Z,16.60
2022-12-19T06:01:29.367Z,16.77
2022-12-19T06:03:58.426Z,15.77
2022-12-19T06:06:28.670Z,16.47
2022-12-19T06:08:59.007Z,16.17
2022-12-19T06:11:28.795Z,17.30
2022-12-19T06:13:59.249Z,17.97
2022-12-19T06:16:28.308Z,16.80
2022-12-19T06:18:57.344Z,16.37
2022-12-19T06:21:26.461Z,17.00
2022-12-19T06:23:56.568Z,18.00
2022-12-19T06:26:25.620Z,16.67
2022-12-19T06:28:56.631Z,17.67
2022-12-19T06:31:27.324Z,16.43
2022-12-19T06:33:57.090Z,17.97
2022-12-19T06:36:27.740Z,18.00
2022-12-19T06:38:59.099Z,17.50
2022-12-19T06:41:45.280Z,18.97
2022-12-19T06:44:16.048Z,18.53
2022-12-19T06:46:46.785Z,16.87
2022-12-19T06:49:15.824Z,17.83
2022-12-19T06:51:45.159Z,17.50
2022-12-19T06:54:15.550Z,19.13
2022-12-19T06:56:45.282Z,18.33
2022-12-19T06:59:16.596Z,17.47
2022-12-19T07:02:14.419Z,18.17
2022-12-19T07:04:47.497Z,17.53
2022-12-19T07:07:16.804Z,17.07
2022-12-19T07:09:45.870Z,18.77
2022-12-19T07:12:14.912Z,17.40
2022-12-19T07:14:45.858Z,17.50
2022-12-19T07:17:20.743Z,17.97
2022-12-19T07:19:49.922Z,19.30
2022-12-19T07:22:19.139Z,17.47
2022-12-19T07:24:48.348Z,16.33
2022-12-19T07:27:17.508Z,18.27
2022-12-19T07:29:46.677Z,16.57
2022-12-19T07:32:15.800Z,17.33
2022-12-19T07:34:46.430Z,18.23
2022-12-19T07:37:15.762Z,18.07
2022-12-19T07:39:44.881Z,18.00
2022-12-19T07:42:13.952Z,18.80
2022-12-19T07:44:43.058Z,19.63
2022-12-19T07:47:12.257Z,19.20
2022-12-19T07:49:41.324Z,19.70
2022-12-19T07:52:11.833Z,19.70
2022-12-19T07:54:41.221Z,20.07
2022-12-19T07:57:10.278Z,18.27
2022-12-19T07:59:39.651Z,18.23
2022-12-19T08:02:09.015Z,18.43
2022-12-19T08:04:38.252Z,18.10
2022-12-19T08:07:07.364Z,17.93
2022-12-19T08:09:37.882Z,17.33
2022-12-19T08:12:07.382Z,17.40
2022-12-19T08:14:36.401Z,17.87
2022-12-19T08:17:21.615Z,17.33
2022-12-19T08:19:51.112Z,17.47
2022-12-19T08:22:20.276Z,17.17
2022-12-19T08:24:50.973Z,17.33
2022-12-19T08:27:20.121Z,17.80
2022-12-19T08:29:49.121Z,17.37
2022-12-19T08:32:21.128Z,17.03
2022-12-19T08:34:51.147Z,16.37
2022-12-19T08:37:20.295Z,16.93
2022-12-19T08:39:50.808Z,17.40
2022-12-19T08:42:19.810Z,17.57
2022-12-19T08:44:48.821Z,17.23
2022-12-19T08:47:18.046Z,18.90
2022-12-19T08:49:47.518Z,17.27
2022-12-19T08:52:17.822Z,18.03
2022-12-19T08:54:47.242Z,16.73
2022-12-19T08:57:17.745Z,18.13
2022-12-19T08:59:47.009Z,17.97
2022-12-19T09:02:17.754Z,17.93
2022-12-19T09:05:57.446Z,18.33
2022-12-19T09:07:38.539Z,17.00
2022-12-19T09:10:09.115Z,17.97
2022-12-19T09:12:39.594Z,18.10
2022-12-19T09:15:09.258Z,18.57
2022-12-19T09:17:38.306Z,19.00
2022-12-19T09:20:08.306Z,18.30
2022-12-19T09:22:37.358Z,17.93
2022-12-19T09:25:07.286Z,18.47
2022-12-19T09:28:09.213Z,18.43
2022-12-19T09:30:27.293Z,17.67
2022-12-19T09:32:56.942Z,17.83
2022-12-19T09:35:30.212Z,18.10
2022-12-19T09:38:00.567Z,17.97
2022-12-19T09:40:44.663Z,17.67
2022-12-19T09:43:22.658Z,18.20
2022-12-19T09:46:03.607Z,16.10
2022-12-19T09:48:33.128Z,16.90
2022-12-19T09:51:09.570Z,18.37
2022-12-19T09:53:54.644Z,17.10
2022-12-19T09:56:27.677Z,16.83
2022-12-19T09:59:05.524Z,16.57
2022-12-19T10:01:41.191Z,16.83
2022-12-19T10:04:14.486Z,17.63
2022-12-19T10:07:12.990Z,17.00
2022-12-19T10:12:00.710Z,17.27
2022-12-19T10:12:52.279Z,16.93
2022-12-19T10:15:30.921Z,16.53
2022-12-19T10:18:32.996Z,16.07
2022-12-19T10:21:08.330Z,15.43
2022-12-19T10:23:58.044Z,15.27
2022-12-19T10:26:34.974Z,16.33
2022-12-19T10:29:20.029Z,16.60
2022-12-19T10:31:57.446Z,16.23
2022-12-19T10:34:38.552Z,14.80
2022-12-19T10:37:23.191Z,15.50
2022-12-19T10:40:21.734Z,16.37
2022-12-19T10:43:07.023Z,15.03
2022-12-19T10:45:45.369Z,15.17
2022-12-19T10:48:22.437Z,14.73
2022-12-19T10:51:06.342Z,16.33
2022-12-19T10:53:36.072Z,15.40
2022-12-19T10:56:14.842Z,15.77
2022-12-19T10:58:45.097Z,14.93
2022-12-19T11:01:16.588Z,14.23
2022-12-19T11:03:50.144Z,14.93
2022-12-19T11:06:49.749Z,15.00
2022-12-19T11:09:25.030Z,16.63
2022-12-19T11:15:24.207Z,15.50
2022-12-19T11:21:18.374Z,15.40
2022-12-19T11:22:19.873Z,16.13
2022-12-19T11:29:46.978Z,15.43
2022-12-19T11:30:38.458Z,16.90
2022-12-19T11:30:45.319Z,14.93
2022-12-19T11:31:58.398Z,15.83
2022-12-19T11:32:39.718Z,15.83
2022-12-19T11:35:24.945Z,15.63
2022-12-19T11:37:57.569Z,17.63
2022-12-19T11:40:36.692Z,16.00
2022-12-19T11:43:43.303Z,15.83
2022-12-19T11:46:04.014Z,15.77
2022-12-19T11:48:40.130Z,17.30
2022-12-19T11:51:18.848Z,15.57
2022-12-19T11:53:57.938Z,16.07
2022-12-19T11:56:30.243Z,15.67
2022-12-19T11:59:02.499Z,16.10
2022-12-19T12:01:48.060Z,15.17
2022-12-19T12:04:48.764Z,17.13
2022-12-19T12:07:28.092Z,16.20
2022-12-19T12:10:17.748Z,15.90
2022-12-19T12:21:04.068Z,15.70
2022-12-19T12:27:28.299Z,16.23
2022-12-19T12:31:22.106Z,15.77
2022-12-19T12:31:27.851Z,15.87
2022-12-19T12:31:46.930Z,16.23
2022-12-19T12:32:02.059Z,15.20
2022-12-19T12:35:32.682Z,14.77
2022-12-19T12:40:43.011Z,16.23
2022-12-19T12:43:27.676Z,15.00
2022-12-19T12:45:56.706Z,16.60
2022-12-19T12:48:30.291Z,14.10
2022-12-19T12:51:01.670Z,15.63
2022-12-19T12:53:34.824Z,16.10
2022-12-19T12:56:07.226Z,16.50
2022-12-19T12:59:20.285Z,15.67
2022-12-19T13:01:53.849Z,15.30
2022-12-19T13:04:35.415Z,17.23
2022-12-19T13:07:17.258Z,17.33
2022-12-19T13:09:47.797Z,15.80
2022-12-19T13:12:39.410Z,16.30
2022-12-19T13:15:38.140Z,16.33
2022-12-19T13:18:15.601Z,18.00
2022-12-19T13:20:47.892Z,17.73
2022-12-19T13:23:33.735Z,16.50
2022-12-19T13:26:02.922Z,17.43
2022-12-19T13:28:43.581Z,17.30
2022-12-19T13:31:22.831Z,19.57
2022-12-19T13:34:20.554Z,16.50
2022-12-19T13:39:49.081Z,17.13
2022-12-19T13:40:00.348Z,16.03
2022-12-19T13:43:10.329Z,18.20
2022-12-19T13:45:42.947Z,17.00
2022-12-19T13:48:17.902Z,17.97
2022-12-19T13:50:49.443Z,17.63
2022-12-19T13:53:20.167Z,17.60
2022-12-19T13:55:54.866Z,17.33
2022-12-19T13:58:28.816Z,18.57
2022-12-19T14:01:02.314Z,17.83
2022-12-19T14:03:39.974Z,16.97
2022-12-19T14:06:18.304Z,16.20
2022-12-19T14:09:46.163Z,17.63
2022-12-19T14:13:44.948Z,17.20
2022-12-19T14:15:02.016Z,17.33
2022-12-19T14:17:39.811Z,17.20
2022-12-19T14:22:02.716Z,17.43
2022-12-19T14:23:09.476Z,18.27
2022-12-19T14:28:26.979Z,18.40
2022-12-19T14:28:42.075Z,17.10
2022-12-19T14:31:15.674Z,17.73
2022-12-19T14:34:04.676Z,18.40
2022-12-19T14:36:41.723Z,17.30
2022-12-19T14:39:24.147Z,19.03
2022-12-19T14:42:31.549Z,19.63
2022-12-19T14:54:06.175Z,18.00
2022-12-19T14:54:17.436Z,18.57
2022-12-19T14:54:33.737Z,17.77
2022-12-19T14:58:07.923Z,17.90
2022-12-19T15:01:08.108Z,18.23
2022-12-19T15:03:23.391Z,17.43
2022-12-19T15:05:54.760Z,18.10
2022-12-19T15:09:01.872Z,18.63
2022-12-19T15:11:53.975Z,19.57
2022-12-19T15:14:57.240Z,17.97
2022-12-19T15:17:25.539Z,19.07
2022-12-19T15:19:54.563Z,19.23
2022-12-19T15:22:23.603Z,18.10
2022-12-19T15:24:52.721Z,20.27
2022-12-19T15:27:23.420Z,19.57
2022-12-19T15:29:52.524Z,20.60
2022-12-19T15:32:21.602Z,20.07
2022-12-19T15:34:51.847Z,19.67
2022-12-19T15:37:20.976Z,19.83
2022-12-19T15:39:50.211Z,19.57
2022-12-19T15:42:22.926Z,19.80
2022-12-19T15:44:56.046Z,20.23
2022-12-19T15:47:32.412Z,20.47
2022-12-19T15:50:05.523Z,19.80
2022-12-19T15:52:34.646Z,20.13
2022-12-19T15:55:03.870Z,20.43
2022-12-19T15:57:36.585Z,20.30
2022-12-19T16:00:09.627Z,19.67
2022-12-19T16:03:21.035Z,20.67
2022-12-19T16:05:30.735Z,20.97
2022-12-19T16:08:00.162Z,18.30
2022-12-19T16:10:29.339Z,19.70
2022-12-19T16:12:59.155Z,20.03
2022-12-19T16:15:31.780Z,20.03
2022-12-19T16:18:03.276Z,20.83
2022-12-19T16:20:36.615Z,20.57
2022-12-19T16:23:06.044Z,21.30
2022-12-19T16:25:38.616Z,19.47
2022-12-19T16:28:09.010Z,20.57
2022-12-19T16:30:40.609Z,21.57
2022-12-19T16:33:19.984Z,20.30
2022-12-19T16:36:06.620Z,19.97
2022-12-19T16:38:36.660Z,20.17
2022-12-19T16:41:05.852Z,22.10
2022-12-19T16:43:39.475Z,22.17
2022-12-19T16:46:14.546Z,20.90
2022-12-19T16:48:43.704Z,20.57
2022-12-19T16:51:19.907Z,20.73
2022-12-19T16:53:49.540Z,19.87
2022-12-19T16:56:27.866Z,20.70
2022-12-19T16:58:58.072Z,20.63
2022-12-19T17:01:29.130Z,19.50
2022-12-19T17:03:58.379Z,19.70
2022-12-19T17:06:28.324Z,20.17
2022-12-19T17:08:57.460Z,20.37
2022-12-19T17:11:28.031Z,19.83
2022-12-19T17:14:03.929Z,20.27
2022-12-19T17:16:34.534Z,21.20
2022-12-19T17:19:03.729Z,20.47
2022-12-19T17:21:32.857Z,20.43
2022-12-19T17:24:01.876Z,20.03
2022-12-19T17:26:31.025Z,20.57
2022-12-19T17:29:00.656Z,21.50
2022-12-19T17:31:38.161Z,23.50
2022-12-19T17:34:14.175Z,21.77
2022-12-19T17:36:43.450Z,20.67
2022-12-19T17:39:20.986Z,20.10
2022-12-19T17:41:50.742Z,22.37
2022-12-19T17:44:20.150Z,20.70
2022-12-19T17:46:49.627Z,20.57
2022-12-19T17:49:24.834Z,21.23
2022-12-19T17:51:54.112Z,20.50
2022-12-19T17:54:24.365Z,20.93
2022-12-19T17:56:53.590Z,21.63
2022-12-19T17:59:22.783Z,20.53
2022-12-19T18:01:52.461Z,22.57
2022-12-19T18:04:23.356Z,22.47
2022-12-19T18:06:52.758Z,23.23
2022-12-19T18:09:22.934Z,21.17
2022-12-19T18:11:52.807Z,22.63
2022-12-19T18:14:21.992Z,23.30
2022-12-19T18:16:52.455Z,22.83
2022-12-19T18:19:26.265Z,22.73
2022-12-19T18:21:55.934Z,21.93
2022-12-19T18:24:26.340Z,20.87
2022-12-19T18:26:55.930Z,20.47
2022-12-19T18:29:26.144Z,22.73
2022-12-19T18:31:56.794Z,20.77
2022-12-19T18:34:29.912Z,21.33
2022-12-19T18:36:59.424Z,22.00
2022-12-19T18:39:32.149Z,23.00
2022-12-19T18:42:01.558Z,22.50
2022-12-19T18:44:31.366Z,22.73
2022-12-19T18:47:01.462Z,22.37
2022-12-19T18:49:35.079Z,22.73
2022-12-19T18:52:04.816Z,22.93
2022-12-19T18:54:34.263Z,21.83
2022-12-19T18:57:04.265Z,22.43
2022-12-19T18:59:34.506Z,22.33
2022-12-19T19:02:05.091Z,22.20
2022-12-19T19:04:36.029Z,21.70
2022-12-19T19:07:05.623Z,22.17
2022-12-19T19:09:37.266Z,21.83
2022-12-19T19:12:26.468Z,22.17
2022-12-19T19:14:55.691Z,21.67
2022-12-19T19:17:29.824Z,23.53
2022-12-19T19:20:01.306Z,23.23
2022-12-19T19:22:32.263Z,21.43
2022-12-19T19:25:02.225Z,23.13
2022-12-19T19:27:32.157Z,21.67
2022-12-19T19:30:02.390Z,23.33
2022-12-19T19:32:33.031Z,22.97
2022-12-19T19:35:05.336Z,22.63
2022-12-19T19:37:35.653Z,23.07
2022-12-19T19:40:04.988Z,24.30
2022-12-19T19:42:34.380Z,22.47
2022-12-19T19:45:03.745Z,23.30
2022-12-19T19:47:36.580Z,24.37
2022-12-19T19:50:09.156Z,23.47
2022-12-19T19:52:40.856Z,22.50
2022-12-19T19:55:10.834Z,23.33
2022-12-19T19:57:40.084Z,24.50
2022-12-19T20:00:11.020Z,23.70
2022-12-19T20:02:43.334Z,24.07
2022-12-19T20:05:14.039Z,25.13
2022-12-19T20:07:43.769Z,25.00
2022-12-19T20:10:14.424Z,24.13
2022-12-19T20:12:43.846Z,24.50
2022-12-19T20:15:13.542Z,23.03
2022-12-19T20:17:43.984Z,23.20
2022-12-19T20:20:16.915Z,24.83
2022-12-19T20:22:47.266Z,23.40
2022-12-19T20:25:17.404Z,24.00
2022-12-19T20:27:46.490Z,24.43
2022-12-19T20:30:16.186Z,24.80
2022-12-19T20:32:46.822Z,24.10
2022-12-19T20:35:18.530Z,26.40
2022-12-19T20:37:49.469Z,23.50
2022-12-19T20:40:19.063Z,23.40
2022-12-19T20:42:48.427Z,24.17
2022-12-19T20:45:18.038Z,24.70
2022-12-19T20:47:47.226Z,25.00
2022-12-19T20:50:18.324Z,24.07
2022-12-19T20:52:47.789Z,22.73
2022-12-19T20:55:17.158Z,24.30
2022-12-19T20:57:46.204Z,23.33
2022-12-19T21:00:18.122Z,25.17
2022-12-19T21:03:25.732Z,24.03
2022-12-19T21:05:37.670Z,23.70
2022-12-19T21:08:07.329Z,23.47
2022-12-19T21:10:37.391Z,23.67
2022-12-19T21:13:06.542Z,23.07
2022-12-19T21:15:35.623Z,22.77
2022-12-19T21:18:05.019Z,23.47
2022-12-19T21:20:37.524Z,22.57
2022-12-19T21:23:07.075Z,22.13
2022-12-19T21:25:36.184Z,22.87
2022-12-19T21:28:05.513Z,23.50
2022-12-19T21:30:34.684Z,23.87
2022-12-19T21:33:04.184Z,21.57
2022-12-19T21:35:38.192Z,23.00
2022-12-19T21:38:07.353Z,25.03
2022-12-19T21:40:38.002Z,23.23
2022-12-19T21:43:11.691Z,24.30
2022-12-19T21:45:41.843Z,23.53
2022-12-19T21:48:10.962Z,22.13
2022-12-19T21:50:41.435Z,22.00
2022-12-19T21:53:11.092Z,24.03
2022-12-19T21:55:40.201Z,22.53
2022-12-19T21:58:09.290Z,23.47
2022-12-19T22:00:38.351Z,21.97
2022-12-19T22:03:15.578Z,23.63
2022-12-19T22:05:46.317Z,21.00
2022-12-19T22:08:15.310Z,22.50
2022-12-19T22:10:44.368Z,21.83
2022-12-19T22:13:13.558Z,24.33
2022-12-19T22:15:42.531Z,23.23
2022-12-19T22:18:12.260Z,23.20
2022-12-19T22:20:43.162Z,23.27
2022-12-19T22:23:14.540Z,22.70
2022-12-19T22:25:43.550Z,21.67
2022-12-19T22:28:12.655Z,21.60
2022-12-19T22:30:41.669Z,22.43
2022-12-19T22:33:10.719Z,23.50
2022-12-19T22:35:40.613Z,22.30
2022-12-19T22:38:09.642Z,22.63
2022-12-19T22:40:40.104Z,22.43
2022-12-19T22:43:09.279Z,22.53
2022-12-19T22:45:38.439Z,21.93
2022-12-19T22:48:07.985Z,22.93
2022-12-19T22:50:37.087Z,22.43
2022-12-19T22:53:12.465Z,22.37
2022-12-19T22:55:44.123Z,23.00
2022-12-19T22:58:13.221Z,21.97
2022-12-19T23:00:43.409Z,22.77
2022-12-19T23:03:12.684Z,22.80
2022-12-19T23:05:45.602Z,20.83
2022-12-19T23:08:17.772Z,21.70
2022-12-19T23:10:51.604Z,22.70
2022-12-19T23:13:21.255Z,22.20
2022-12-19T23:15:50.290Z,22.83
2022-12-19T23:18:19.743Z,23.03
2022-12-19T23:20:48.807Z,22.13
2022-12-19T23:23:17.901Z,21.70
2022-12-19T23:25:50.880Z,23.47
2022-12-19T23:28:19.929Z,22.57
2022-12-19T23:30:48.922Z,22.63
2022-12-19T23:33:18.872Z,23.23
2022-12-19T23:35:47.864Z,22.50
2022-12-19T23:38:16.885Z,23.77
2022-12-19T23:40:47.323Z,21.80
2022-12-19T23:43:16.483Z,22.77
2022-12-19T23:45:45.550Z,21.67
2022-12-19T23:48:14.579Z,21.20
2022-12-19T23:50:43.607Z,22.33
2022-12-19T23:53:12.633Z,21.27
2022-12-19T23:55:41.698Z,23.00
2022-12-19T23:58:16.562Z,22.80
